Terminal Aerodrome Forecast
Issued by NWS

Home | Current Version | Previous Version | Text Only | Print | Product List | Glossary On
Versions: 1 2 3 4 5 6 7 8 9 10 11 12 13 14 15 16 17 18 19 20 21 22 23 24 25 26 27 28 29 30 31 32
000
FTAK31 PAFA 231141
TAFATA
TAF
PATA 231141Z 2312/2412 24006KT P6SM BKN120 BKN200
     FM232000 26008KT P6SM -SHRA SCT020 BKN050 BKN090
     FM240200 24013G20KT 4SM -SHRA BR FU SCT020 BKN035 OVC060=

USA.gov is the U.S. government's official web portal to all federal, state and local government web resources and services.